Aérodrome :
LOGIN :

S'inscrire | Disclaimer

   EN    FR    IT 

 










Légende :    VFR   VFR Marginal   IFR   IFR Intensif   IFR Très Intensif
Visi : 
Plafond : 
>= 8 km
>= 3000ft
5 à 8 km
1000 à 3000 ft
1500m à 5 km
500 à 1000 ft
800 à 1500m
200 à 500 ft
< 800m
< 200 ft
Symboles :   Orages  Brouillard  Fortes neiges  Fortes précipitations  Vent > 20 kt
SIGMETs :   Divers  Orages  Givrage  Turbulence  Onde Orograph.  Cendres Volcan.







- Altitude de l'aérodrome : 306 ft
- Code IATA : EMA
- Voir les cartes d'approche


EGNX - Nottingham East Midlands

DERNIER METAR :
  • 141920Z 12007KT 9999 SCT049 00/M01 Q1022

METARs EXPIRÉS :
  • 141850Z 11008KT 9999 BKN041 00/M01 Q1022
  • 141820Z 13005KT 9999 BKN045 01/M01 Q1023
  • 141750Z 15005KT 9999 BKN049 01/M01 Q1023
  • 141720Z 14006KT 9999 FEW045 01/M02 Q1023
  • 141650Z 13005KT CAVOK 01/M02 Q1023
  • 141620Z 13005KT CAVOK 01/M02 Q1023

TAF TAF EGNX
Valide du 14 à 18h jusqu'au 15 à 18h UTC


141659Z 1418/1518 13004KT 9999 FEW040
TEMPO 1418/1503 7000
PROB30 1421/1502 2000 BR BKN003
BECMG 1504/1507 13014KT
TEMPO 1509/1518 13018G28KT
TEMPO 1513/1518 6000 RA
BECMG 1515/1518 SCT008 BKN012
PROB30
TEMPO 1515/1518 3000 +RA FZRA BKN008
ATIS : +44 1332 852 852 (ext 3201)
Pas de NOTAMs connus pour ce terrain.



MET'MAP, la Météo Aéronautique d'un coup d'oeil ! - Copyright ORBIFLY Décembre 2007 - Disclaimer

ORBIFLY MET'MAP TEAM :

Programmation & Développement : Alexandra Zaïnal
Conception & Développement : Baudouin d'Aumeries
Co-Programmation & Développement : Marc-Olivier Méhu
Soutien technique & logistique : Manuel Goepfert

Contact : metmap@orbifly.com




SOURCES & CREDITS :

   NOAA